sensor_id;sensor_type;location;lat;lon;timestamp;P1;durP1;ratioP1;P2;durP2;ratioP2
62673;SDS011;62269;47.594;17.638;2023-05-07T00:00:05;9.80;;;8.30;;
62673;SDS011;62269;47.594;17.638;2023-05-07T00:01:05;10.18;;;9.18;;
62673;SDS011;62269;47.594;17.638;2023-05-07T00:02:03;9.98;;;8.98;;
62673;SDS011;62269;47.594;17.638;2023-05-07T00:03:00;9.68;;;8.60;;
62673;SDS011;62269;47.594;17.638;2023-05-07T00:03:58;13.68;;;9.65;;
62673;SDS011;62269;47.594;17.638;2023-05-07T00:04:55;9.80;;;8.90;;
62673;SDS011;62269;47.594;17.638;2023-05-07T00:05:52;10.57;;;9.07;;
62673;SDS011;62269;47.594;17.638;2023-05-07T00:06:49;10.93;;;8.73;;
62673;SDS011;62269;47.594;17.638;2023-05-07T00:07:47;9.90;;;9.00;;
62673;SDS011;62269;47.594;17.638;2023-05-07T00:08:44;10.07;;;9.07;;
62673;SDS011;62269;47.594;17.638;2023-05-07T00:09:41;10.57;;;9.45;;
62673;SDS011;62269;47.594;17.638;2023-05-07T00:10:38;10.10;;;8.57;;
62673;SDS011;62269;47.594;17.638;2023-05-07T00:11:36;11.00;;;9.68;;
62673;SDS011;62269;47.594;17.638;2023-05-07T00:12:33;10.18;;;9.18;;
62673;SDS011;62269;47.594;17.638;2023-05-07T00:13:30;11.48;;;8.82;;
62673;SDS011;62269;47.594;17.638;2023-05-07T00:14:31;10.60;;;9.60;;
62673;SDS011;62269;47.594;17.638;2023-05-07T00:15:28;9.68;;;8.68;;
62673;SDS011;62269;47.594;17.638;2023-05-07T00:16:25;11.23;;;9.48;;
62673;SDS011;62269;47.594;17.638;2023-05-07T00:17:22;10.13;;;8.88;;
62673;SDS011;62269;47.594;17.638;2023-05-07T00:18:19;9.40;;;8.40;;
62673;SDS011;62269;47.594;17.638;2023-05-07T00:19:18;9.95;;;9.00;;
62673;SDS011;62269;47.594;17.638;2023-05-07T00:20:15;13.20;;;9.05;;
62673;SDS011;62269;47.594;17.638;2023-05-07T00:21:12;9.88;;;8.88;;
62673;SDS011;62269;47.594;17.638;2023-05-07T00:22:09;9.90;;;9.00;;
62673;SDS011;62269;47.594;17.638;2023-05-07T00:23:07;9.52;;;8.50;;
62673;SDS011;62269;47.594;17.638;2023-05-07T00:24:04;10.35;;;9.00;;
62673;SDS011;62269;47.594;17.638;2023-05-07T00:25:01;10.00;;;8.90;;
62673;SDS011;62269;47.594;17.638;2023-05-07T00:25:58;12.65;;;8.80;;
62673;SDS011;62269;47.594;17.638;2023-05-07T00:26:55;10.60;;;8.55;;
62673;SDS011;62269;47.594;17.638;2023-05-07T00:27:54;10.63;;;8.73;;
62673;SDS011;62269;47.594;17.638;2023-05-07T00:28:51;9.52;;;8.57;;
62673;SDS011;62269;47.594;17.638;2023-05-07T00:29:48;11.05;;;8.85;;
62673;SDS011;62269;47.594;17.638;2023-05-07T00:30:45;10.32;;;9.18;;
62673;SDS011;62269;47.594;17.638;2023-05-07T00:31:42;10.10;;;8.52;;
62673;SDS011;62269;47.594;17.638;2023-05-07T00:32:39;9.75;;;8.82;;
62673;SDS011;62269;47.594;17.638;2023-05-07T00:33:37;12.55;;;8.68;;
62673;SDS011;62269;47.594;17.638;2023-05-07T00:34:34;10.23;;;9.23;;
62673;SDS011;62269;47.594;17.638;2023-05-07T00:35:31;10.73;;;8.82;;
62673;SDS011;62269;47.594;17.638;2023-05-07T00:36:28;9.70;;;8.73;;
62673;SDS011;62269;47.594;17.638;2023-05-07T00:37:26;14.55;;;10.10;;
62673;SDS011;62269;47.594;17.638;2023-05-07T00:38:23;11.68;;;9.15;;
62673;SDS011;62269;47.594;17.638;2023-05-07T00:39:20;11.98;;;9.00;;
62673;SDS011;62269;47.594;17.638;2023-05-07T00:40:17;12.25;;;9.55;;
62673;SDS011;62269;47.594;17.638;2023-05-07T00:41:15;10.93;;;8.63;;
62673;SDS011;62269;47.594;17.638;2023-05-07T00:42:11;10.25;;;8.40;;
62673;SDS011;62269;47.594;17.638;2023-05-07T00:43:09;9.07;;;8.18;;
62673;SDS011;62269;47.594;17.638;2023-05-07T00:44:06;10.00;;;8.85;;
62673;SDS011;62269;47.594;17.638;2023-05-07T00:45:03;9.68;;;8.68;;
62673;SDS011;62269;47.594;17.638;2023-05-07T00:46:00;10.10;;;8.77;;
62673;SDS011;62269;47.594;17.638;2023-05-07T00:46:57;9.85;;;8.85;;
62673;SDS011;62269;47.594;17.638;2023-05-07T00:47:55;23.08;;;10.20;;
62673;SDS011;62269;47.594;17.638;2023-05-07T00:48:53;9.82;;;8.82;;
62673;SDS011;62269;47.594;17.638;2023-05-07T00:49:51;14.43;;;9.38;;
62673;SDS011;62269;47.594;17.638;2023-05-07T00:50:48;15.40;;;8.90;;
62673;SDS011;62269;47.594;17.638;2023-05-07T00:51:45;13.40;;;9.95;;
62673;SDS011;62269;47.594;17.638;2023-05-07T00:52:42;11.18;;;9.63;;
62673;SDS011;62269;47.594;17.638;2023-05-07T00:53:40;9.93;;;9.02;;
62673;SDS011;62269;47.594;17.638;2023-05-07T00:54:37;9.77;;;8.88;;
62673;SDS011;62269;47.594;17.638;2023-05-07T00:55:34;10.00;;;8.82;;
62673;SDS011;62269;47.594;17.638;2023-05-07T00:56:32;11.55;;;9.02;;
62673;SDS011;62269;47.594;17.638;2023-05-07T00:57:29;10.40;;;8.63;;
62673;SDS011;62269;47.594;17.638;2023-05-07T00:58:26;10.43;;;9.35;;
62673;SDS011;62269;47.594;17.638;2023-05-07T00:59:23;9.70;;;8.73;;
62673;SDS011;62269;47.594;17.638;2023-05-07T01:00:20;9.70;;;8.70;;
62673;SDS011;62269;47.594;17.638;2023-05-07T01:01:17;9.32;;;8.43;;
62673;SDS011;62269;47.594;17.638;2023-05-07T01:02:14;11.88;;;9.20;;
62673;SDS011;62269;47.594;17.638;2023-05-07T01:03:11;11.30;;;8.30;;
62673;SDS011;62269;47.594;17.638;2023-05-07T01:04:08;12.32;;;8.75;;
62673;SDS011;62269;47.594;17.638;2023-05-07T01:05:07;12.60;;;9.30;;
62673;SDS011;62269;47.594;17.638;2023-05-07T01:06:06;12.82;;;8.32;;
62673;SDS011;62269;47.594;17.638;2023-05-07T01:07:04;11.20;;;8.30;;
62673;SDS011;62269;47.594;17.638;2023-05-07T01:08:01;10.10;;;8.73;;
62673;SDS011;62269;47.594;17.638;2023-05-07T01:08:59;9.88;;;8.65;;
62673;SDS011;62269;47.594;17.638;2023-05-07T01:09:56;11.63;;;8.20;;
62673;SDS011;62269;47.594;17.638;2023-05-07T01:10:54;11.85;;;8.82;;
62673;SDS011;62269;47.594;17.638;2023-05-07T01:11:51;12.27;;;8.90;;
62673;SDS011;62269;47.594;17.638;2023-05-07T01:12:48;10.45;;;8.45;;
62673;SDS011;62269;47.594;17.638;2023-05-07T01:13:46;10.70;;;9.63;;
62673;SDS011;62269;47.594;17.638;2023-05-07T01:14:44;13.32;;;8.90;;
62673;SDS011;62269;47.594;17.638;2023-05-07T01:15:41;14.85;;;9.07;;
62673;SDS011;62269;47.594;17.638;2023-05-07T01:16:39;13.85;;;9.25;;
62673;SDS011;62269;47.594;17.638;2023-05-07T01:17:39;10.93;;;8.18;;
62673;SDS011;62269;47.594;17.638;2023-05-07T01:18:37;8.73;;;7.93;;
62673;SDS011;62269;47.594;17.638;2023-05-07T01:19:34;10.38;;;7.35;;
62673;SDS011;62269;47.594;17.638;2023-05-07T01:20:31;8.82;;;7.93;;
62673;SDS011;62269;47.594;17.638;2023-05-07T01:21:28;11.82;;;8.55;;
62673;SDS011;62269;47.594;17.638;2023-05-07T01:22:30;10.10;;;8.70;;
62673;SDS011;62269;47.594;17.638;2023-05-07T01:23:28;9.68;;;7.80;;
62673;SDS011;62269;47.594;17.638;2023-05-07T01:24:26;8.93;;;8.02;;
62673;SDS011;62269;47.594;17.638;2023-05-07T01:25:23;8.77;;;7.87;;
62673;SDS011;62269;47.594;17.638;2023-05-07T01:26:20;9.85;;;8.23;;
62673;SDS011;62269;47.594;17.638;2023-05-07T01:27:18;9.98;;;8.35;;
62673;SDS011;62269;47.594;17.638;2023-05-07T01:28:15;11.43;;;8.35;;
62673;SDS011;62269;47.594;17.638;2023-05-07T01:29:14;8.90;;;8.00;;
62673;SDS011;62269;47.594;17.638;2023-05-07T01:30:11;8.90;;;8.00;;
62673;SDS011;62269;47.594;17.638;2023-05-07T01:31:10;8.77;;;7.93;;
62673;SDS011;62269;47.594;17.638;2023-05-07T01:32:08;8.98;;;7.87;;
62673;SDS011;62269;47.594;17.638;2023-05-07T01:33:08;10.57;;;7.65;;
62673;SDS011;62269;47.594;17.638;2023-05-07T01:34:06;8.93;;;8.10;;
62673;SDS011;62269;47.594;17.638;2023-05-07T01:35:04;10.43;;;7.80;;
62673;SDS011;62269;47.594;17.638;2023-05-07T01:36:02;9.63;;;7.80;;
62673;SDS011;62269;47.594;17.638;2023-05-07T01:37:02;11.93;;;8.50;;
62673;SDS011;62269;47.594;17.638;2023-05-07T01:38:00;8.82;;;7.90;;
62673;SDS011;62269;47.594;17.638;2023-05-07T01:38:57;11.60;;;8.48;;
62673;SDS011;62269;47.594;17.638;2023-05-07T01:39:55;8.90;;;8.00;;
62673;SDS011;62269;47.594;17.638;2023-05-07T01:40:52;8.02;;;7.22;;
62673;SDS011;62269;47.594;17.638;2023-05-07T01:41:50;9.68;;;7.47;;
62673;SDS011;62269;47.594;17.638;2023-05-07T01:42:48;8.40;;;7.60;;
62673;SDS011;62269;47.594;17.638;2023-05-07T01:43:45;8.55;;;7.50;;
62673;SDS011;62269;47.594;17.638;2023-05-07T01:44:43;9.13;;;7.97;;
62673;SDS011;62269;47.594;17.638;2023-05-07T01:45:40;8.80;;;7.93;;
62673;SDS011;62269;47.594;17.638;2023-05-07T01:46:37;13.23;;;8.55;;
62673;SDS011;62269;47.594;17.638;2023-05-07T01:47:35;8.82;;;7.93;;
62673;SDS011;62269;47.594;17.638;2023-05-07T01:48:33;9.90;;;8.05;;
62673;SDS011;62269;47.594;17.638;2023-05-07T01:49:31;9.80;;;8.80;;
62673;SDS011;62269;47.594;17.638;2023-05-07T01:50:28;17.92;;;8.77;;
62673;SDS011;62269;47.594;17.638;2023-05-07T01:51:25;11.18;;;7.87;;
62673;SDS011;62269;47.594;17.638;2023-05-07T01:52:22;11.02;;;7.90;;
62673;SDS011;62269;47.594;17.638;2023-05-07T01:53:20;9.13;;;8.23;;
62673;SDS011;62269;47.594;17.638;2023-05-07T01:54:17;8.88;;;7.97;;
62673;SDS011;62269;47.594;17.638;2023-05-07T01:55:14;10.43;;;7.62;;
62673;SDS011;62269;47.594;17.638;2023-05-07T01:56:11;8.45;;;7.37;;
62673;SDS011;62269;47.594;17.638;2023-05-07T01:57:08;9.35;;;8.45;;
62673;SDS011;62269;47.594;17.638;2023-05-07T01:58:05;10.60;;;8.05;;
62673;SDS011;62269;47.594;17.638;2023-05-07T01:59:02;9.05;;;8.15;;
62673;SDS011;62269;47.594;17.638;2023-05-07T01:59:59;10.27;;;7.75;;
62673;SDS011;62269;47.594;17.638;2023-05-07T02:00:56;12.88;;;8.60;;
62673;SDS011;62269;47.594;17.638;2023-05-07T02:01:53;8.35;;;7.43;;
62673;SDS011;62269;47.594;17.638;2023-05-07T02:02:50;8.98;;;8.07;;
62673;SDS011;62269;47.594;17.638;2023-05-07T02:03:48;11.48;;;7.65;;
62673;SDS011;62269;47.594;17.638;2023-05-07T02:04:45;12.02;;;7.87;;
62673;SDS011;62269;47.594;17.638;2023-05-07T02:05:42;8.40;;;7.60;;
62673;SDS011;62269;47.594;17.638;2023-05-07T02:06:39;8.70;;;7.62;;
62673;SDS011;62269;47.594;17.638;2023-05-07T02:07:36;8.52;;;7.62;;
62673;SDS011;62269;47.594;17.638;2023-05-07T02:08:33;11.15;;;8.75;;
62673;SDS011;62269;47.594;17.638;2023-05-07T02:09:30;10.30;;;8.88;;
62673;SDS011;62269;47.594;17.638;2023-05-07T02:10:27;11.82;;;8.20;;
62673;SDS011;62269;47.594;17.638;2023-05-07T02:11:24;9.68;;;7.90;;
62673;SDS011;62269;47.594;17.638;2023-05-07T02:12:22;9.10;;;8.20;;
62673;SDS011;62269;47.594;17.638;2023-05-07T02:13:19;10.23;;;8.35;;
62673;SDS011;62269;47.594;17.638;2023-05-07T02:14:18;11.45;;;8.77;;
62673;SDS011;62269;47.594;17.638;2023-05-07T02:15:17;9.23;;;8.27;;
62673;SDS011;62269;47.594;17.638;2023-05-07T02:16:14;9.18;;;8.27;;
62673;SDS011;62269;47.594;17.638;2023-05-07T02:17:11;9.43;;;8.45;;
62673;SDS011;62269;47.594;17.638;2023-05-07T02:18:08;9.50;;;8.60;;
62673;SDS011;62269;47.594;17.638;2023-05-07T02:19:07;10.50;;;7.80;;
62673;SDS011;62269;47.594;17.638;2023-05-07T02:20:04;9.48;;;8.50;;
62673;SDS011;62269;47.594;17.638;2023-05-07T02:21:03;8.73;;;7.72;;
62673;SDS011;62269;47.594;17.638;2023-05-07T02:22:01;9.80;;;8.35;;
62673;SDS011;62269;47.594;17.638;2023-05-07T02:22:58;9.40;;;8.40;;
62673;SDS011;62269;47.594;17.638;2023-05-07T02:23:55;9.65;;;8.27;;
62673;SDS011;62269;47.594;17.638;2023-05-07T02:24:52;10.00;;;8.35;;
62673;SDS011;62269;47.594;17.638;2023-05-07T02:25:49;8.93;;;7.95;;
62673;SDS011;62269;47.594;17.638;2023-05-07T02:26:47;9.02;;;8.00;;
62673;SDS011;62269;47.594;17.638;2023-05-07T02:27:44;10.27;;;7.80;;
62673;SDS011;62269;47.594;17.638;2023-05-07T02:28:41;8.70;;;7.80;;
62673;SDS011;62269;47.594;17.638;2023-05-07T02:29:38;9.27;;;8.38;;
62673;SDS011;62269;47.594;17.638;2023-05-07T02:30:36;12.60;;;7.93;;
62673;SDS011;62269;47.594;17.638;2023-05-07T02:31:33;10.73;;;7.80;;
62673;SDS011;62269;47.594;17.638;2023-05-07T02:32:30;9.52;;;8.30;;
62673;SDS011;62269;47.594;17.638;2023-05-07T02:33:27;11.05;;;8.18;;
62673;SDS011;62269;47.594;17.638;2023-05-07T02:34:24;9.48;;;7.40;;
62673;SDS011;62269;47.594;17.638;2023-05-07T02:35:21;9.10;;;8.20;;
62673;SDS011;62269;47.594;17.638;2023-05-07T02:36:18;11.25;;;8.25;;
62673;SDS011;62269;47.594;17.638;2023-05-07T02:37:15;8.90;;;8.00;;
62673;SDS011;62269;47.594;17.638;2023-05-07T02:38:12;14.35;;;8.25;;
62673;SDS011;62269;47.594;17.638;2023-05-07T02:39:09;11.43;;;8.02;;
62673;SDS011;62269;47.594;17.638;2023-05-07T02:40:06;10.35;;;8.23;;
62673;SDS011;62269;47.594;17.638;2023-05-07T02:41:04;9.93;;;8.02;;
62673;SDS011;62269;47.594;17.638;2023-05-07T02:42:01;10.70;;;8.07;;
62673;SDS011;62269;47.594;17.638;2023-05-07T02:42:58;10.85;;;8.30;;
62673;SDS011;62269;47.594;17.638;2023-05-07T02:43:56;8.75;;;7.82;;
62673;SDS011;62269;47.594;17.638;2023-05-07T02:44:53;10.90;;;8.27;;
62673;SDS011;62269;47.594;17.638;2023-05-07T02:45:59;10.23;;;8.27;;
62673;SDS011;62269;47.594;17.638;2023-05-07T02:46:57;8.93;;;7.60;;
62673;SDS011;62269;47.594;17.638;2023-05-07T02:47:54;9.23;;;8.00;;
62673;SDS011;62269;47.594;17.638;2023-05-07T02:48:51;9.00;;;8.07;;
62673;SDS011;62269;47.594;17.638;2023-05-07T02:49:48;10.82;;;8.30;;
62673;SDS011;62269;47.594;17.638;2023-05-07T02:50:45;18.00;;;8.85;;
62673;SDS011;62269;47.594;17.638;2023-05-07T02:51:42;10.60;;;8.90;;
62673;SDS011;62269;47.594;17.638;2023-05-07T02:52:39;9.90;;;8.93;;
62673;SDS011;62269;47.594;17.638;2023-05-07T02:53:36;9.43;;;8.52;;
62673;SDS011;62269;47.594;17.638;2023-05-07T02:54:33;10.45;;;8.63;;
62673;SDS011;62269;47.594;17.638;2023-05-07T02:55:31;8.85;;;7.95;;
62673;SDS011;62269;47.594;17.638;2023-05-07T02:56:28;10.82;;;8.07;;
62673;SDS011;62269;47.594;17.638;2023-05-07T02:57:25;10.40;;;8.55;;
62673;SDS011;62269;47.594;17.638;2023-05-07T02:58:22;15.70;;;8.98;;
62673;SDS011;62269;47.594;17.638;2023-05-07T02:59:19;9.35;;;8.45;;
62673;SDS011;62269;47.594;17.638;2023-05-07T03:00:17;9.65;;;7.72;;
62673;SDS011;62269;47.594;17.638;2023-05-07T03:01:15;9.32;;;7.70;;
62673;SDS011;62269;47.594;17.638;2023-05-07T03:02:12;12.02;;;8.32;;
62673;SDS011;62269;47.594;17.638;2023-05-07T03:03:09;8.93;;;7.93;;
62673;SDS011;62269;47.594;17.638;2023-05-07T03:04:07;10.18;;;7.95;;
62673;SDS011;62269;47.594;17.638;2023-05-07T03:05:05;12.80;;;8.15;;
62673;SDS011;62269;47.594;17.638;2023-05-07T03:06:02;9.40;;;7.72;;
62673;SDS011;62269;47.594;17.638;2023-05-07T03:06:59;11.20;;;8.00;;
62673;SDS011;62269;47.594;17.638;2023-05-07T03:07:56;9.20;;;7.35;;
62673;SDS011;62269;47.594;17.638;2023-05-07T03:08:53;10.52;;;8.45;;
62673;SDS011;62269;47.594;17.638;2023-05-07T03:09:50;14.18;;;8.45;;
62673;SDS011;62269;47.594;17.638;2023-05-07T03:10:47;9.52;;;8.55;;
62673;SDS011;62269;47.594;17.638;2023-05-07T03:11:44;12.68;;;8.45;;
62673;SDS011;62269;47.594;17.638;2023-05-07T03:12:41;12.45;;;8.68;;
62673;SDS011;62269;47.594;17.638;2023-05-07T03:13:38;10.00;;;8.43;;
62673;SDS011;62269;47.594;17.638;2023-05-07T03:14:35;10.25;;;9.02;;
62673;SDS011;62269;47.594;17.638;2023-05-07T03:15:32;10.02;;;7.97;;
62673;SDS011;62269;47.594;17.638;2023-05-07T03:16:29;9.60;;;7.82;;
62673;SDS011;62269;47.594;17.638;2023-05-07T03:17:26;9.10;;;8.20;;
62673;SDS011;62269;47.594;17.638;2023-05-07T03:18:23;10.45;;;8.20;;
62673;SDS011;62269;47.594;17.638;2023-05-07T03:19:20;10.93;;;8.25;;
62673;SDS011;62269;47.594;17.638;2023-05-07T03:20:17;10.45;;;8.50;;
62673;SDS011;62269;47.594;17.638;2023-05-07T03:21:15;9.60;;;8.63;;
62673;SDS011;62269;47.594;17.638;2023-05-07T03:22:12;10.20;;;8.48;;
62673;SDS011;62269;47.594;17.638;2023-05-07T03:23:08;11.82;;;9.00;;
62673;SDS011;62269;47.594;17.638;2023-05-07T03:24:06;9.93;;;8.55;;
62673;SDS011;62269;47.594;17.638;2023-05-07T03:25:03;12.75;;;8.20;;
62673;SDS011;62269;47.594;17.638;2023-05-07T03:26:01;9.65;;;8.50;;
62673;SDS011;62269;47.594;17.638;2023-05-07T03:26:58;10.00;;;8.95;;
62673;SDS011;62269;47.594;17.638;2023-05-07T03:27:57;10.35;;;9.10;;
62673;SDS011;62269;47.594;17.638;2023-05-07T03:28:54;10.45;;;8.82;;
62673;SDS011;62269;47.594;17.638;2023-05-07T03:29:51;9.50;;;8.60;;
62673;SDS011;62269;47.594;17.638;2023-05-07T03:30:48;11.38;;;8.55;;
62673;SDS011;62269;47.594;17.638;2023-05-07T03:31:45;12.77;;;8.60;;
62673;SDS011;62269;47.594;17.638;2023-05-07T03:32:43;12.15;;;7.93;;
62673;SDS011;62269;47.594;17.638;2023-05-07T03:33:53;9.30;;;8.30;;
62673;SDS011;62269;47.594;17.638;2023-05-07T03:34:51;13.02;;;8.95;;
62673;SDS011;62269;47.594;17.638;2023-05-07T03:35:48;10.70;;;8.00;;
62673;SDS011;62269;47.594;17.638;2023-05-07T03:36:45;11.75;;;8.05;;
62673;SDS011;62269;47.594;17.638;2023-05-07T03:37:42;10.82;;;8.10;;
62673;SDS011;62269;47.594;17.638;2023-05-07T03:38:39;10.40;;;8.80;;
62673;SDS011;62269;47.594;17.638;2023-05-07T03:39:36;11.48;;;8.48;;
62673;SDS011;62269;47.594;17.638;2023-05-07T03:40:33;10.60;;;8.85;;
62673;SDS011;62269;47.594;17.638;2023-05-07T03:41:30;10.73;;;7.87;;
62673;SDS011;62269;47.594;17.638;2023-05-07T03:42:27;11.43;;;8.07;;
62673;SDS011;62269;47.594;17.638;2023-05-07T03:43:25;10.48;;;8.15;;
62673;SDS011;62269;47.594;17.638;2023-05-07T03:44:22;9.15;;;8.25;;
62673;SDS011;62269;47.594;17.638;2023-05-07T03:45:19;8.98;;;8.07;;
62673;SDS011;62269;47.594;17.638;2023-05-07T03:46:16;9.60;;;8.45;;
62673;SDS011;62269;47.594;17.638;2023-05-07T03:47:13;13.70;;;8.40;;
62673;SDS011;62269;47.594;17.638;2023-05-07T03:48:10;9.43;;;7.90;;
62673;SDS011;62269;47.594;17.638;2023-05-07T03:49:07;9.50;;;8.50;;
62673;SDS011;62269;47.594;17.638;2023-05-07T03:50:04;9.13;;;8.10;;
62673;SDS011;62269;47.594;17.638;2023-05-07T03:51:01;9.48;;;7.97;;
62673;SDS011;62269;47.594;17.638;2023-05-07T03:51:58;9.57;;;8.32;;
62673;SDS011;62269;47.594;17.638;2023-05-07T03:52:55;9.07;;;8.18;;
62673;SDS011;62269;47.594;17.638;2023-05-07T03:53:52;9.80;;;8.15;;
62673;SDS011;62269;47.594;17.638;2023-05-07T03:54:49;9.05;;;8.02;;
62673;SDS011;62269;47.594;17.638;2023-05-07T03:55:46;10.02;;;8.30;;
62673;SDS011;62269;47.594;17.638;2023-05-07T03:56:43;9.43;;;7.80;;
62673;SDS011;62269;47.594;17.638;2023-05-07T03:57:40;11.43;;;7.65;;
62673;SDS011;62269;47.594;17.638;2023-05-07T03:58:37;13.00;;;8.18;;
62673;SDS011;62269;47.594;17.638;2023-05-07T03:59:34;12.35;;;7.60;;
62673;SDS011;62269;47.594;17.638;2023-05-07T04:00:31;9.63;;;7.87;;
62673;SDS011;62269;47.594;17.638;2023-05-07T04:01:30;9.65;;;8.35;;
62673;SDS011;62269;47.594;17.638;2023-05-07T04:02:27;8.32;;;7.53;;
62673;SDS011;62269;47.594;17.638;2023-05-07T04:03:27;10.73;;;8.00;;
62673;SDS011;62269;47.594;17.638;2023-05-07T04:04:24;10.73;;;8.50;;
62673;SDS011;62269;47.594;17.638;2023-05-07T04:05:21;9.70;;;8.35;;
62673;SDS011;62269;47.594;17.638;2023-05-07T04:06:18;11.90;;;7.20;;
62673;SDS011;62269;47.594;17.638;2023-05-07T04:07:15;10.48;;;8.20;;
62673;SDS011;62269;47.594;17.638;2023-05-07T04:08:12;12.00;;;7.53;;
62673;SDS011;62269;47.594;17.638;2023-05-07T04:09:09;8.30;;;7.40;;
62673;SDS011;62269;47.594;17.638;2023-05-07T04:10:06;8.90;;;8.00;;
62673;SDS011;62269;47.594;17.638;2023-05-07T04:11:04;9.40;;;7.87;;
62673;SDS011;62269;47.594;17.638;2023-05-07T04:12:01;9.35;;;8.00;;
62673;SDS011;62269;47.594;17.638;2023-05-07T04:12:58;11.25;;;7.57;;
62673;SDS011;62269;47.594;17.638;2023-05-07T04:13:56;8.52;;;7.57;;
62673;SDS011;62269;47.594;17.638;2023-05-07T04:14:52;9.07;;;7.68;;
62673;SDS011;62269;47.594;17.638;2023-05-07T04:15:50;8.90;;;7.75;;
62673;SDS011;62269;47.594;17.638;2023-05-07T04:16:47;8.63;;;7.53;;
62673;SDS011;62269;47.594;17.638;2023-05-07T04:17:44;9.23;;;7.32;;
62673;SDS011;62269;47.594;17.638;2023-05-07T04:18:41;10.50;;;8.50;;
62673;SDS011;62269;47.594;17.638;2023-05-07T04:19:38;9.93;;;7.95;;
62673;SDS011;62269;47.594;17.638;2023-05-07T04:20:35;8.60;;;7.68;;
62673;SDS011;62269;47.594;17.638;2023-05-07T04:21:36;9.43;;;7.87;;
62673;SDS011;62269;47.594;17.638;2023-05-07T04:22:32;8.30;;;7.50;;
62673;SDS011;62269;47.594;17.638;2023-05-07T04:23:29;10.90;;;7.70;;
62673;SDS011;62269;47.594;17.638;2023-05-07T04:24:27;9.45;;;7.65;;
62673;SDS011;62269;47.594;17.638;2023-05-07T04:25:24;8.48;;;7.57;;
62673;SDS011;62269;47.594;17.638;2023-05-07T04:26:23;8.27;;;7.45;;
62673;SDS011;62269;47.594;17.638;2023-05-07T04:27:20;8.38;;;7.47;;
62673;SDS011;62269;47.594;17.638;2023-05-07T04:28:17;12.23;;;8.32;;
62673;SDS011;62269;47.594;17.638;2023-05-07T04:29:14;8.57;;;7.70;;
62673;SDS011;62269;47.594;17.638;2023-05-07T04:30:12;8.45;;;7.55;;
62673;SDS011;62269;47.594;17.638;2023-05-07T04:31:10;8.60;;;7.70;;
62673;SDS011;62269;47.594;17.638;2023-05-07T04:32:06;9.48;;;7.35;;
62673;SDS011;62269;47.594;17.638;2023-05-07T04:33:04;9.15;;;8.25;;
62673;SDS011;62269;47.594;17.638;2023-05-07T04:34:03;8.63;;;7.68;;
62673;SDS011;62269;47.594;17.638;2023-05-07T04:35:00;8.73;;;7.85;;
62673;SDS011;62269;47.594;17.638;2023-05-07T04:35:58;9.70;;;7.75;;
62673;SDS011;62269;47.594;17.638;2023-05-07T04:36:59;8.90;;;8.00;;
62673;SDS011;62269;47.594;17.638;2023-05-07T04:37:57;8.40;;;7.60;;
62673;SDS011;62269;47.594;17.638;2023-05-07T04:38:54;8.13;;;7.32;;
62673;SDS011;62269;47.594;17.638;2023-05-07T04:39:51;9.05;;;8.25;;
62673;SDS011;62269;47.594;17.638;2023-05-07T04:40:48;8.68;;;7.78;;
62673;SDS011;62269;47.594;17.638;2023-05-07T04:41:45;10.00;;;7.78;;
62673;SDS011;62269;47.594;17.638;2023-05-07T04:42:42;8.32;;;7.20;;
62673;SDS011;62269;47.594;17.638;2023-05-07T04:43:39;12.40;;;7.12;;
62673;SDS011;62269;47.594;17.638;2023-05-07T04:44:38;9.40;;;7.15;;
62673;SDS011;62269;47.594;17.638;2023-05-07T04:45:35;7.70;;;6.87;;
62673;SDS011;62269;47.594;17.638;2023-05-07T04:46:33;10.20;;;6.70;;
62673;SDS011;62269;47.594;17.638;2023-05-07T04:47:30;7.65;;;6.75;;
62673;SDS011;62269;47.594;17.638;2023-05-07T04:48:27;10.30;;;6.68;;
62673;SDS011;62269;47.594;17.638;2023-05-07T04:49:25;9.10;;;6.87;;
62673;SDS011;62269;47.594;17.638;2023-05-07T04:50:22;9.88;;;7.37;;
62673;SDS011;62269;47.594;17.638;2023-05-07T04:51:20;8.88;;;7.20;;
62673;SDS011;62269;47.594;17.638;2023-05-07T04:52:18;9.93;;;7.35;;
62673;SDS011;62269;47.594;17.638;2023-05-07T04:53:15;7.82;;;7.03;;
62673;SDS011;62269;47.594;17.638;2023-05-07T04:54:12;10.00;;;7.53;;
62673;SDS011;62269;47.594;17.638;2023-05-07T04:55:09;8.30;;;7.50;;
62673;SDS011;62269;47.594;17.638;2023-05-07T04:56:06;9.18;;;8.32;;
62673;SDS011;62269;47.594;17.638;2023-05-07T04:57:09;8.95;;;8.15;;
62673;SDS011;62269;47.594;17.638;2023-05-07T04:59:12;8.77;;;7.87;;
62673;SDS011;62269;47.594;17.638;2023-05-07T05:00:09;10.27;;;9.10;;
62673;SDS011;62269;47.594;17.638;2023-05-07T05:01:07;8.88;;;8.02;;
62673;SDS011;62269;47.594;17.638;2023-05-07T05:02:05;9.23;;;8.18;;
62673;SDS011;62269;47.594;17.638;2023-05-07T05:03:02;10.45;;;8.55;;
62673;SDS011;62269;47.594;17.638;2023-05-07T05:04:00;8.35;;;7.53;;
62673;SDS011;62269;47.594;17.638;2023-05-07T05:04:58;9.32;;;8.25;;
62673;SDS011;62269;47.594;17.638;2023-05-07T05:05:56;9.90;;;8.90;;
62673;SDS011;62269;47.594;17.638;2023-05-07T05:06:56;9.10;;;8.20;;
62673;SDS011;62269;47.594;17.638;2023-05-07T05:07:53;10.93;;;8.00;;
62673;SDS011;62269;47.594;17.638;2023-05-07T05:08:49;10.02;;;8.40;;
62673;SDS011;62269;47.594;17.638;2023-05-07T05:09:46;10.32;;;8.90;;
62673;SDS011;62269;47.594;17.638;2023-05-07T05:10:44;10.38;;;8.63;;
62673;SDS011;62269;47.594;17.638;2023-05-07T05:11:41;10.30;;;9.40;;
62673;SDS011;62269;47.594;17.638;2023-05-07T05:12:38;9.88;;;8.88;;
62673;SDS011;62269;47.594;17.638;2023-05-07T05:13:35;9.07;;;8.27;;
62673;SDS011;62269;47.594;17.638;2023-05-07T05:14:32;9.80;;;8.90;;
62673;SDS011;62269;47.594;17.638;2023-05-07T05:15:29;9.13;;;8.30;;
62673;SDS011;62269;47.594;17.638;2023-05-07T05:16:29;9.02;;;8.13;;
62673;SDS011;62269;47.594;17.638;2023-05-07T05:17:26;9.27;;;8.30;;
62673;SDS011;62269;47.594;17.638;2023-05-07T05:18:23;9.57;;;8.68;;
62673;SDS011;62269;47.594;17.638;2023-05-07T05:19:20;9.70;;;8.82;;
62673;SDS011;62269;47.594;17.638;2023-05-07T05:20:17;10.13;;;9.23;;
62673;SDS011;62269;47.594;17.638;2023-05-07T05:21:14;10.10;;;9.20;;
62673;SDS011;62269;47.594;17.638;2023-05-07T05:22:11;10.00;;;9.20;;
62673;SDS011;62269;47.594;17.638;2023-05-07T05:23:08;11.02;;;9.07;;
62673;SDS011;62269;47.594;17.638;2023-05-07T05:24:05;11.35;;;9.60;;
62673;SDS011;62269;47.594;17.638;2023-05-07T05:25:02;11.65;;;10.50;;
62673;SDS011;62269;47.594;17.638;2023-05-07T05:25:59;13.00;;;11.70;;
62673;SDS011;62269;47.594;17.638;2023-05-07T05:26:56;12.35;;;11.23;;
62673;SDS011;62269;47.594;17.638;2023-05-07T05:27:53;12.80;;;11.60;;
62673;SDS011;62269;47.594;17.638;2023-05-07T05:28:51;12.85;;;11.55;;
62673;SDS011;62269;47.594;17.638;2023-05-07T05:29:48;14.02;;;12.68;;
62673;SDS011;62269;47.594;17.638;2023-05-07T05:30:45;13.90;;;12.50;;
62673;SDS011;62269;47.594;17.638;2023-05-07T05:31:42;14.50;;;13.00;;
62673;SDS011;62269;47.594;17.638;2023-05-07T05:32:39;14.52;;;13.13;;
62673;SDS011;62269;47.594;17.638;2023-05-07T05:33:36;14.57;;;13.18;;
62673;SDS011;62269;47.594;17.638;2023-05-07T05:34:33;15.27;;;13.73;;
62673;SDS011;62269;47.594;17.638;2023-05-07T05:35:30;16.65;;;13.82;;
62673;SDS011;62269;47.594;17.638;2023-05-07T05:36:28;15.38;;;13.75;;
62673;SDS011;62269;47.594;17.638;2023-05-07T05:37:25;15.65;;;14.05;;
62673;SDS011;62269;47.594;17.638;2023-05-07T05:38:22;15.55;;;14.15;;